KFDK

Frederick Municipal Airport

Frederick, Maryland, USA
METAR KFDK 232147Z 00000KT 10SM OVC008 07/07 A3037
Observed Flight Rules
Feb-23 @ 21:47 UTC (52 minutes ago) Instrument Flight Rules
Wind Visibility Clouds
Calm 10 miles
  • Overcast at 800' AGL
Temperatures Readings
Current 7°C / 45°F
Dewpoint 7°C / 45°F
Humidity 100%
Altimeter 30.37" Hg
Pressure 1028 hPa
Elevation 92
METAR KFDK 232147Z 00000KT 10SM OVC008 07/07 A3037
Observed Flight Rules
Feb-23 @ 21:47 UTC
(52 minutes ago)
IFR
Wind Visibility
Calm 10 miles
Clouds
  • Overcast at 800' AGL
Temperature Dewpoint
7°C / 45°F 7°C / 45°F
Humidity Altimeter Pressure
100% 30.37" Hg 1028 hPa